Time;durP1;ratioP1;P1;durP2;ratioP2;P2;SDS_P1;SDS_P2;PMS_P1;PMS_P2;Temp;Humidity;BMP_temperature;BMP_pressure;BME280_temperature;BME280_humidity;BME280_pressure;Samples;Min_cycle;Max_cycle;Signal;HPM_P1;HPM_P2
2023/07/03 00:00:45;;;;;;;0.45;0.25;;;;;;;12.07;100.00;99226.53;7391171;19;20022;-78
2023/07/03 00:03:13;;;;;;;0.32;0.30;;;;;;;12.04;100.00;99230.31;7392609;19;20018;-78
2023/07/03 00:05:44;;;;;;;0.65;0.63;;;;;;;11.66;100.00;99216.91;7391534;19;20014;-78
2023/07/03 00:08:11;;;;;;;0.30;0.30;;;;;;;11.70;100.00;99216.69;7391957;19;20018;-78
2023/07/03 00:10:37;;;;;;;0.22;0.22;;;;;;;11.44;100.00;99222.31;7392411;19;20018;-78
2023/07/03 00:13:03;;;;;;;0.28;0.28;;;;;;;12.16;100.00;99215.13;7392055;19;20372;-78
2023/07/03 00:15:30;;;;;;;0.50;0.50;;;;;;;12.36;100.00;99217.00;7390842;19;20073;-78
2023/07/03 00:17:56;;;;;;;3.10;1.02;;;;;;;12.07;100.00;99228.53;7389630;19;20035;-78
2023/07/03 00:20:22;;;;;;;0.30;0.30;;;;;;;11.90;100.00;99217.31;7391126;19;20014;-78
2023/07/03 00:22:51;;;;;;;0.10;0.10;;;;;;;11.91;100.00;99221.63;7391925;19;20030;-78
2023/07/03 00:25:17;;;;;;;0.30;0.30;;;;;;;11.54;100.00;99222.91;7392391;19;20029;-78
2023/07/03 00:27:44;;;;;;;0.15;0.15;;;;;;;11.47;100.00;99226.91;7391475;19;20014;-78
2023/07/03 00:30:11;;;;;;;0.47;0.47;;;;;;;11.24;100.00;99220.41;7390568;19;20022;-78
2023/07/03 00:32:37;;;;;;;0.88;0.80;;;;;;;11.39;100.00;99211.91;7390862;19;20022;-78
2023/07/03 00:35:04;;;;;;;0.10;0.10;;;;;;;11.51;100.00;99209.94;7389844;19;20015;-78
2023/07/03 00:37:30;;;;;;;0.40;0.40;;;;;;;11.37;100.00;99214.41;7392266;19;20380;-78
2023/07/03 00:39:56;;;;;;;0.40;0.40;;;;;;;11.73;100.00;99215.69;7389056;19;20477;-78
2023/07/03 00:42:24;;;;;;;0.50;0.40;;;;;;;11.94;100.00;99203.13;7391653;19;20078;-78
2023/07/03 00:44:50;;;;;;;0.28;0.28;;;;;;;11.90;100.00;99208.16;7391529;19;20030;-78
2023/07/03 00:47:16;;;;;;;0.20;0.20;;;;;;;11.35;100.00;99209.34;7391500;19;20047;-78
2023/07/03 00:49:42;;;;;;;0.60;0.20;;;;;;;11.89;100.00;99201.09;7392117;19;20078;-78
2023/07/03 00:52:11;;;;;;;0.40;0.40;;;;;;;11.93;100.00;99207.91;7390252;19;20018;-78
2023/07/03 00:54:38;;;;;;;0.40;0.40;;;;;;;11.29;100.00;99205.00;7388998;19;20040;-78
2023/07/03 00:57:05;;;;;;;2.58;0.52;;;;;;;11.36;100.00;99210.88;7389925;19;20120;-78
2023/07/03 00:59:33;;;;;;;0.35;0.30;;;;;;;11.27;100.00;99215.88;7386836;19;20017;-78
2023/07/03 01:02:05;;;;;;;0.20;0.20;;;;;;;11.14;100.00;99215.50;7391460;19;20014;-78
2023/07/03 01:04:40;;;;;;;0.20;0.20;;;;;;;11.21;100.00;99212.28;7387585;19;20472;-78
2023/07/03 01:07:14;;;;;;;0.57;0.57;;;;;;;10.78;100.00;99216.22;7390681;19;20015;-78
2023/07/03 01:09:48;;;;;;;0.20;0.20;;;;;;;11.45;100.00;99212.72;7393171;19;20018;-78
2023/07/03 01:12:15;;;;;;;0.30;0.30;;;;;;;11.34;100.00;99209.84;7394024;19;20014;-78
2023/07/03 01:14:44;;;;;;;0.20;0.20;;;;;;;11.32;100.00;99202.00;7399068;19;20089;-78
2023/07/03 01:17:13;;;;;;;0.35;0.35;;;;;;;11.03;100.00;99198.72;7395642;19;20491;-78
2023/07/03 01:19:43;;;;;;;1.42;0.55;;;;;;;11.19;100.00;99203.66;7395297;19;20032;-78
2023/07/03 01:22:13;;;;;;;;;;;;;;;10.93;100.00;99198.13;7397844;19;20010;-78
2023/07/03 01:24:48;;;;;;;3.03;0.57;;;;;;;11.52;100.00;99195.50;7395898;19;19915;-78
2023/07/03 01:27:19;;;;;;;7.78;0.47;;;;;;;11.20;100.00;99196.81;7401823;19;20053;-78
2023/07/03 01:29:46;;;;;;;0.40;0.38;;;;;;;10.89;100.00;99194.03;7396517;19;20038;-78
2023/07/03 01:32:14;;;;;;;0.35;0.25;;;;;;;10.98;100.00;99191.09;7395897;19;20095;-78
2023/07/03 01:34:43;;;;;;;0.50;0.50;;;;;;;11.39;100.00;99193.16;7397382;19;20103;-78
2023/07/03 01:37:11;;;;;;;0.43;0.43;;;;;;;11.40;100.00;99188.34;7397287;19;20011;-78
2023/07/03 01:39:38;;;;;;;0.30;0.30;;;;;;;11.45;100.00;99184.84;7395277;19;20015;-77
2023/07/03 01:42:06;;;;;;;0.35;0.35;;;;;;;11.28;100.00;99175.59;7395331;19;20021;-78
2023/07/03 01:44:32;;;;;;;0.30;0.30;;;;;;;11.37;100.00;99183.75;7394963;19;20015;-77
2023/07/03 01:47:07;;;;;;;0.93;0.65;;;;;;;11.41;100.00;99178.72;7395244;19;20237;-78
2023/07/03 01:49:33;;;;;;;0.20;0.20;;;;;;;11.25;100.00;99177.34;7394098;19;20007;-77
2023/07/03 01:52:30;;;;;;;0.50;0.47;;;;;;;11.68;100.00;99172.56;7394750;19;20466;-77
2023/07/03 01:55:02;;;;;;;0.40;0.40;;;;;;;11.24;100.00;99181.38;7393303;19;20019;-77
2023/07/03 01:57:58;;;;;;;0.20;0.20;;;;;;;11.79;100.00;99189.34;7397756;19;20534;-78
2023/07/03 02:00:35;;;;;;;0.20;0.20;;;;;;;10.46;100.00;99179.97;7391627;19;20118;-77
2023/07/03 02:03:10;;;;;;;0.63;0.52;;;;;;;10.24;100.00;99190.88;7394518;19;20010;-78
2023/07/03 02:05:38;;;;;;;0.65;0.40;;;;;;;9.94;100.00;99190.25;7394787;19;20074;-78
2023/07/03 02:08:06;;;;;;;0.30;0.30;;;;;;;10.10;100.00;99191.69;7393710;19;20007;-77
2023/07/03 02:10:32;;;;;;;0.40;0.40;;;;;;;9.87;100.00;99184.34;7394306;19;20019;-78
2023/07/03 02:12:59;;;;;;;0.20;0.20;;;;;;;9.79;100.00;99188.78;7396783;19;20029;-78
2023/07/03 02:15:25;;;;;;;0.20;0.20;;;;;;;9.81;100.00;99183.53;7396015;19;20445;-77
2023/07/03 02:17:54;;;;;;;7.20;0.57;;;;;;;9.83;100.00;99178.97;7395369;19;20020;-77
2023/07/03 02:20:22;;;;;;;;;;;;;;;9.69;100.00;99199.28;7393542;19;20085;-78
2023/07/03 02:22:48;;;;;;;0.25;0.25;;;;;;;9.82;100.00;99183.03;7392347;19;19923;-77
2023/07/03 02:25:15;;;;;;;0.32;0.32;;;;;;;10.24;100.00;99190.88;7394928;19;20074;-78
2023/07/03 02:27:44;;;;;;;0.30;0.30;;;;;;;10.06;100.00;99179.25;7392309;19;20412;-77
2023/07/03 02:30:12;;;;;;;1.55;0.75;;;;;;;10.03;100.00;99178.19;7395435;19;20070;-77
2023/07/03 02:32:40;;;;;;;0.10;0.10;;;;;;;10.09;100.00;99173.47;7394814;19;20482;-78
2023/07/03 02:35:07;;;;;;;0.28;0.28;;;;;;;10.37;100.00;99182.91;7392805;19;20033;-77
2023/07/03 02:37:33;;;;;;;0.38;0.38;;;;;;;10.60;100.00;99181.13;7394469;19;20023;-78
2023/07/03 02:40:01;;;;;;;0.28;0.28;;;;;;;11.52;100.00;99164.81;7392545;19;20473;-77
2023/07/03 02:42:27;;;;;;;0.22;0.22;;;;;;;11.47;100.00;99154.44;7393881;19;20014;-78
2023/07/03 02:44:53;;;;;;;0.20;0.20;;;;;;;11.35;100.00;99163.97;7395422;19;20014;-78
2023/07/03 02:47:19;;;;;;;0.40;0.40;;;;;;;11.37;100.00;99153.84;7394454;19;20006;-77
2023/07/03 02:49:46;;;;;;;0.28;0.28;;;;;;;11.42;100.00;99152.34;7393193;19;20108;-77
2023/07/03 02:52:12;;;;;;;0.25;0.25;;;;;;;10.79;100.00;99157.22;7393241;19;20015;-78
2023/07/03 02:54:38;;;;;;;0.10;0.10;;;;;;;10.27;100.00;99161.28;7392919;19;20018;-78
2023/07/03 02:57:06;;;;;;;4.57;0.50;;;;;;;10.66;100.00;99165.22;7395206;19;20362;-77
2023/07/03 02:59:33;;;;;;;1.20;0.38;;;;;;;10.70;100.00;99165.03;7394510;19;20040;-77
2023/07/03 03:01:59;;;;;;;0.32;0.32;;;;;;;10.97;100.00;99153.31;7391885;19;20085;-77
2023/07/03 03:04:27;;;;;;;1.00;0.63;;;;;;;10.79;100.00;99148.88;7390516;19;20018;-78
2023/07/03 03:06:53;;;;;;;0.32;0.32;;;;;;;10.75;100.00;99155.94;7390646;19;20019;-77
2023/07/03 03:09:19;;;;;;;0.20;0.20;;;;;;;10.59;100.00;99152.50;7389852;19;20027;-78
2023/07/03 03:11:46;;;;;;;0.20;0.20;;;;;;;10.91;100.00;99147.72;7394036;19;20014;-77
2023/07/03 03:14:13;;;;;;;0.68;0.47;;;;;;;11.09;100.00;99147.34;7393171;19;20078;-77
2023/07/03 03:16:39;;;;;;;0.40;0.40;;;;;;;10.95;100.00;99147.50;7392615;19;20014;-77
2023/07/03 03:19:05;;;;;;;0.22;0.22;;;;;;;11.12;100.00;99140.78;7389970;19;20411;-77
2023/07/03 03:21:31;;;;;;;0.20;0.20;;;;;;;10.79;100.00;99139.75;7390210;19;20018;-77
2023/07/03 03:23:57;;;;;;;0.30;0.30;;;;;;;10.12;100.00;99144.69;7392137;19;20014;-78
2023/07/03 03:26:24;;;;;;;2.05;0.60;;;;;;;10.29;100.00;99144.88;7391044;19;20019;-77
2023/07/03 03:28:51;;;;;;;0.28;0.28;;;;;;;10.00;100.00;99145.81;7389644;19;20010;-77
2023/07/03 03:31:18;;;;;;;2.67;1.08;;;;;;;9.92;100.00;99147.47;7388913;19;20018;-77
2023/07/03 03:33:51;;;;;;;0.45;0.45;;;;;;;11.23;100.00;99137.31;7393558;19;20370;-78
2023/07/03 03:36:18;;;;;;;0.20;0.20;;;;;;;11.15;100.00;99130.66;7391273;19;20039;-78
2023/07/03 03:38:44;;;;;;;0.10;0.10;;;;;;;11.13;100.00;99130.41;7390526;19;20031;-77
2023/07/03 03:41:12;;;;;;;0.28;0.15;;;;;;;11.32;100.00;99128.75;7389917;19;20010;-78
2023/07/03 03:43:41;;;;;;;0.40;0.40;;;;;;;11.12;100.00;99129.63;7391802;19;20031;-77
2023/07/03 03:46:08;;;;;;;0.30;0.30;;;;;;;10.72;100.00;99140.22;7391738;19;20074;-77
2023/07/03 03:48:35;;;;;;;4.38;0.52;;;;;;;10.44;100.00;99135.16;7391231;19;20014;-77
2023/07/03 03:51:03;;;;;;;1.25;0.20;;;;;;;10.55;100.00;99131.72;7391598;19;20031;-77
2023/07/03 03:53:31;;;;;;;0.55;0.47;;;;;;;10.60;100.00;99140.13;7390674;19;20089;-77
2023/07/03 03:55:58;;;;;;;0.10;0.10;;;;;;;10.98;100.00;99136.09;7390523;19;20015;-77
2023/07/03 03:58:25;;;;;;;0.47;0.40;;;;;;;11.18;100.00;99129.66;7388626;19;20014;-77
2023/07/03 04:00:51;;;;;;;2.53;0.32;;;;;;;11.25;100.00;99123.63;7389401;19;20027;-78
2023/07/03 04:03:17;;;;;;;0.22;0.22;;;;;;;10.96;100.00;99126.75;7391308;19;20010;-77
2023/07/03 04:05:43;;;;;;;1.85;0.88;;;;;;;10.98;100.00;99130.53;7391572;19;20015;-77
2023/07/03 04:08:11;;;;;;;0.32;0.32;;;;;;;11.10;100.00;99123.03;7391305;19;20021;-77
2023/07/03 04:10:37;;;;;;;0.50;0.50;;;;;;;11.03;100.00;99115.13;7392815;19;20044;-77
2023/07/03 04:13:03;;;;;;;0.30;0.30;;;;;;;11.70;100.00;99113.47;7391898;19;20024;-77
2023/07/03 04:15:33;;;;;;;0.30;0.30;;;;;;;11.15;100.00;99111.91;7396429;19;20081;-77
2023/07/03 04:17:59;;;;;;;0.30;0.30;;;;;;;11.43;100.00;99114.88;7392134;19;20010;-78
2023/07/03 04:20:26;;;;;;;4.53;0.52;;;;;;;11.20;100.00;99116.75;7391559;19;20030;-78
2023/07/03 04:22:52;;;;;;;0.38;0.38;;;;;;;11.29;100.00;99118.56;7393033;19;20045;-77
2023/07/03 04:25:19;;;;;;;0.10;0.10;;;;;;;11.05;100.00;99112.59;7395882;19;20030;-77
2023/07/03 04:27:45;;;;;;;1.15;0.63;;;;;;;11.21;100.00;99125.88;7392111;19;20033;-78
2023/07/03 04:30:11;;;;;;;0.35;0.35;;;;;;;11.19;100.00;99118.03;7390635;19;20035;-77
2023/07/03 04:32:38;;;;;;;0.32;0.32;;;;;;;11.41;100.00;99122.97;7391159;19;20505;-77
2023/07/03 04:35:04;;;;;;;5.18;0.85;;;;;;;11.69;100.00;99109.94;7391464;19;20390;-77
2023/07/03 04:37:31;;;;;;;0.20;0.20;;;;;;;11.63;100.00;99111.91;7394899;19;20021;-77
2023/07/03 04:39:57;;;;;;;9.13;0.60;;;;;;;11.46;100.00;99113.09;7389823;19;20018;-77
2023/07/03 04:42:23;;;;;;;2.92;0.65;;;;;;;10.68;100.00;99117.41;7399541;19;20018;-77
2023/07/03 04:44:50;;;;;;;0.20;0.10;;;;;;;10.70;100.00;99117.69;7404605;19;20078;-77
2023/07/03 04:47:17;;;;;;;0.38;0.35;;;;;;;10.68;100.00;99121.72;7405319;19;20014;-77
2023/07/03 04:49:45;;;;;;;0.32;0.30;;;;;;;10.73;100.00;99116.66;7409953;19;20019;-77
2023/07/03 04:52:16;;;;;;;1.05;0.43;;;;;;;10.79;100.00;99106.34;7404536;19;20084;-77
2023/07/03 04:54:43;;;;;;;0.45;0.45;;;;;;;11.33;100.00;99105.16;7404070;19;20019;-77
2023/07/03 04:57:09;;;;;;;0.20;0.20;;;;;;;10.87;100.00;99101.84;7405488;19;20096;-77
2023/07/03 04:59:36;;;;;;;1.33;0.30;;;;;;;11.16;100.00;99095.94;7402680;19;20382;-77
2023/07/03 05:02:02;;;;;;;0.40;0.40;;;;;;;11.33;100.00;99116.31;7401433;19;20050;-77
2023/07/03 05:04:28;;;;;;;0.30;0.30;;;;;;;11.42;100.00;99108.53;7402160;19;20011;-77
2023/07/03 05:06:54;;;;;;;0.20;0.20;;;;;;;11.31;100.00;99102.88;7402845;19;20089;-78
2023/07/03 05:09:21;;;;;;;0.20;0.20;;;;;;;11.25;100.00;99098.53;7403248;19;20475;-77
2023/07/03 05:11:49;;;;;;;0.22;0.22;;;;;;;11.34;100.00;99110.25;7402964;19;20010;-78
2023/07/03 05:14:16;;;;;;;0.32;0.32;;;;;;;11.49;100.00;99107.28;7403407;19;20022;-78
2023/07/03 05:16:42;;;;;;;0.10;0.10;;;;;;;11.58;100.00;99109.09;7404622;19;20022;-77
2023/07/03 05:19:08;;;;;;;0.15;0.15;;;;;;;11.59;100.00;99105.81;7403777;19;20019;-77
2023/07/03 05:21:34;;;;;;;2.28;0.70;;;;;;;12.08;100.00;99112.84;7402689;19;20026;-78
2023/07/03 05:24:00;;;;;;;0.20;0.20;;;;;;;11.80;100.00;99112.75;7401738;19;20033;-77
2023/07/03 05:26:26;;;;;;;0.47;0.38;;;;;;;11.90;100.00;99125.25;7401315;19;20040;-78
2023/07/03 05:28:52;;;;;;;0.20;0.20;;;;;;;12.05;100.00;99120.22;7401226;19;20015;-77
2023/07/03 05:31:22;;;;;;;0.30;0.30;;;;;;;11.92;100.00;99122.72;7402864;19;20019;-77
2023/07/03 05:33:48;;;;;;;0.60;0.60;;;;;;;12.02;100.00;99126.78;7402926;19;20021;-77
2023/07/03 05:36:14;;;;;;;0.10;0.05;;;;;;;12.42;100.00;99133.22;7408256;19;20014;-77
2023/07/03 05:38:40;;;;;;;0.20;0.20;;;;;;;12.41;100.00;99117.75;7401323;19;20122;-77
2023/07/03 05:41:06;;;;;;;0.95;0.75;;;;;;;12.68;100.00;99119.78;7402245;19;20369;-77
2023/07/03 05:43:32;;;;;;;0.20;0.20;;;;;;;12.75;100.00;99113.69;7404176;19;20018;-77
2023/07/03 05:45:58;;;;;;;0.73;0.38;;;;;;;12.75;100.00;99108.88;7406846;19;20019;-77
2023/07/03 05:48:24;;;;;;;0.40;0.10;;;;;;;13.19;100.00;99104.53;7401262;19;20014;-78
2023/07/03 05:50:50;;;;;;;1.02;0.20;;;;;;;12.76;100.00;99093.63;7404002;19;20018;-77
2023/07/03 05:53:17;;;;;;;0.10;0.10;;;;;;;12.79;100.00;99092.63;7399143;19;20015;-77
2023/07/03 05:55:43;;;;;;;2.25;0.32;;;;;;;12.89;100.00;99095.88;7400376;19;20010;-78
2023/07/03 05:58:11;;;;;;;0.10;0.10;;;;;;;12.60;100.00;99102.00;7399935;19;20394;-78
2023/07/03 06:00:37;;;;;;;0.25;0.10;;;;;;;12.51;100.00;99105.06;7396183;19;20015;-77
2023/07/03 06:03:04;;;;;;;1.00;0.63;;;;;;;12.43;100.00;99098.47;7396744;19;20018;-78
2023/07/03 06:05:30;;;;;;;0.40;0.40;;;;;;;12.32;100.00;99092.84;7397191;19;20026;-77
2023/07/03 06:07:56;;;;;;;1.88;0.35;;;;;;;12.39;100.00;99095.16;7395136;19;20365;-77
2023/07/03 06:10:23;;;;;;;0.50;0.20;;;;;;;12.41;100.00;99107.31;7395275;19;20018;-77
2023/07/03 06:12:49;;;;;;;1.85;0.40;;;;;;;12.67;100.00;99096.66;7396889;19;20018;-77
2023/07/03 06:15:15;;;;;;;0.10;0.10;;;;;;;12.76;100.00;99098.44;7397212;19;20029;-77
2023/07/03 06:17:42;;;;;;;1.90;0.52;;;;;;;13.12;100.00;99089.03;7394000;19;20120;-77
2023/07/03 06:20:10;;;;;;;0.40;0.35;;;;;;;12.81;100.00;99095.66;7395025;19;20584;-77
2023/07/03 06:22:38;;;;;;;5.57;0.32;;;;;;;12.59;100.00;99101.25;7396058;19;20367;-78
2023/07/03 06:25:06;;;;;;;2.88;1.10;;;;;;;12.69;100.00;99099.72;7395862;19;20043;-77
2023/07/03 06:27:33;;;;;;;0.10;0.10;;;;;;;12.66;100.00;99105.56;7396046;19;20026;-77
2023/07/03 06:29:59;;;;;;;0.20;0.15;;;;;;;12.89;100.00;99109.88;7396192;19;20015;-77
2023/07/03 06:32:25;;;;;;;5.05;0.22;;;;;;;12.79;100.00;99112.19;7395832;19;20015;-77
2023/07/03 06:34:51;;;;;;;0.52;0.20;;;;;;;12.53;100.00;99114.44;7395367;19;20011;-77
2023/07/03 06:37:17;;;;;;;0.20;0.17;;;;;;;12.69;100.00;99104.56;7396103;19;20053;-77
2023/07/03 06:39:43;;;;;;;1.27;0.25;;;;;;;13.13;100.00;99109.34;7393341;19;20359;-77
2023/07/03 06:42:10;;;;;;;1.75;0.28;;;;;;;13.27;100.00;99103.50;7393609;19;20014;-77
2023/07/03 06:44:42;;;;;;;0.40;0.25;;;;;;;13.85;100.00;99097.94;7392034;19;20025;-77
2023/07/03 06:47:08;;;;;;;1.38;0.77;;;;;;;13.49;100.00;99097.81;7393129;19;20022;-77
2023/07/03 06:49:35;;;;;;;7.13;0.52;;;;;;;13.43;100.00;99097.09;7392240;19;20086;-77
2023/07/03 06:52:02;;;;;;;0.65;0.20;;;;;;;13.17;100.00;99091.06;7393600;19;20309;-77
2023/07/03 06:54:28;;;;;;;0.90;0.35;;;;;;;13.31;100.00;99089.25;7393801;19;20022;-77
2023/07/03 06:56:54;;;;;;;0.20;0.13;;;;;;;13.51;100.00;99080.53;7397017;19;20014;-77
2023/07/03 06:59:20;;;;;;;0.40;0.10;;;;;;;13.49;100.00;99081.03;7389940;19;20455;-77
2023/07/03 07:01:46;;;;;;;0.10;0.10;;;;;;;13.76;100.00;99078.63;7391580;19;20030;-77
2023/07/03 07:04:12;;;;;;;1.33;0.20;;;;;;;13.80;100.00;99065.13;7391089;19;20033;-77
2023/07/03 07:06:39;;;;;;;1.52;0.35;;;;;;;13.81;100.00;99072.25;7391361;19;20018;-77
2023/07/03 07:09:05;;;;;;;1.70;0.63;;;;;;;13.49;100.00;99064.25;7389813;19;20473;-77
2023/07/03 07:11:36;;;;;;;1.80;0.38;;;;;;;13.55;100.00;99079.00;7394756;19;20019;-77
2023/07/03 07:14:05;;;;;;;2.00;0.35;;;;;;;13.77;100.00;99082.97;7394356;19;20022;-77
2023/07/03 07:16:34;;;;;;;0.10;0.10;;;;;;;13.83;100.00;99078.88;7395919;19;20018;-77
2023/07/03 07:19:04;;;;;;;0.57;0.32;;;;;;;14.11;100.00;99068.28;7392063;19;20023;-77
2023/07/03 07:21:31;;;;;;;2.47;0.28;;;;;;;13.93;100.00;99062.50;7390529;19;20608;-77
2023/07/03 07:24:01;;;;;;;2.58;0.57;;;;;;;14.04;100.00;99062.44;7390926;19;20018;-77
2023/07/03 07:26:33;;;;;;;1.05;0.17;;;;;;;14.37;100.00;99067.88;7395591;19;20021;-77
2023/07/03 07:29:03;;;;;;;1.13;0.30;;;;;;;14.59;100.00;99067.69;7389792;19;20011;-77
2023/07/03 07:31:31;;;;;;;1.45;0.40;;;;;;;14.68;100.00;99075.00;7392360;19;20018;-77
2023/07/03 07:33:57;;;;;;;1.65;0.57;;;;;;;15.31;100.00;99078.19;7394257;19;20035;-77
2023/07/03 07:36:25;;;;;;;1.70;0.25;;;;;;;15.56;100.00;99073.34;7397198;19;20018;-78
2023/07/03 07:38:52;;;;;;;1.13;0.52;;;;;;;16.09;100.00;99075.19;7390810;19;20019;-77
2023/07/03 07:41:20;;;;;;;4.22;0.50;;;;;;;16.59;100.00;99072.41;7391922;19;20051;-77
2023/07/03 07:43:48;;;;;;;2.15;0.15;;;;;;;17.11;100.00;99059.75;7394727;19;20030;-77
2023/07/03 07:46:15;;;;;;;0.20;0.20;;;;;;;16.85;100.00;99076.63;7395569;19;20612;-77
2023/07/03 07:48:41;;;;;;;0.52;0.32;;;;;;;17.35;100.00;99073.63;7392352;19;20082;-76
2023/07/03 07:51:09;;;;;;;6.40;0.60;;;;;;;18.58;100.00;99078.19;7391818;19;20109;-77
2023/07/03 07:53:36;;;;;;;0.20;0.20;;;;;;;17.47;100.00;99074.94;7392868;19;20014;-77
2023/07/03 07:56:04;;;;;;;4.38;0.15;;;;;;;17.17;100.00;99074.50;7395939;19;20082;-77
2023/07/03 07:58:30;;;;;;;0.45;0.10;;;;;;;17.13;100.00;99082.50;7391870;19;20018;-78
2023/07/03 08:00:59;;;;;;;6.80;0.40;;;;;;;16.90;100.00;99070.88;7389722;19;20393;-77
2023/07/03 08:03:26;;;;;;;0.73;0.35;;;;;;;16.87;100.00;99074.03;7390756;19;20019;-77
2023/07/03 08:05:57;;;;;;;4.25;1.05;;;;;;;17.19;100.00;99067.03;7395031;19;20022;-77
2023/07/03 08:08:26;;;;;;;1.30;0.10;;;;;;;16.89;100.00;99071.44;7391185;19;20018;-77
2023/07/03 08:10:56;;;;;;;3.63;0.20;;;;;;;16.89;100.00;99074.25;7391395;19;20107;-77
2023/07/03 08:13:23;;;;;;;0.93;0.10;;;;;;;16.29;100.00;99065.47;7392094;19;20465;-77
2023/07/03 08:15:49;;;;;;;0.52;0.20;;;;;;;16.11;100.00;99069.84;7391678;19;20010;-77
2023/07/03 08:18:16;;;;;;;1.63;0.20;;;;;;;16.04;100.00;99069.66;7391472;19;20025;-77
2023/07/03 08:20:43;;;;;;;2.92;0.30;;;;;;;15.94;100.00;99074.91;7389360;19;20011;-77
2023/07/03 08:23:09;;;;;;;1.40;0.57;;;;;;;15.75;100.00;99066.47;7391685;19;20022;-77
2023/07/03 08:25:36;;;;;;;8.15;0.65;;;;;;;15.75;100.00;99065.72;7391728;19;20126;-77
2023/07/03 08:28:02;;;;;;;0.15;0.00;;;;;;;16.30;100.00;99056.50;7389724;19;20026;-77
2023/07/03 08:30:28;;;;;;;0.90;0.20;;;;;;;16.35;100.00;99052.84;7391188;19;20029;-77
2023/07/03 08:32:54;;;;;;;1.65;0.30;;;;;;;16.59;100.00;99066.78;7390954;19;20015;-77
2023/07/03 08:35:20;;;;;;;1.45;0.22;;;;;;;15.90;100.00;99066.03;7392560;19;20011;-77
2023/07/03 08:37:47;;;;;;;1.58;0.35;;;;;;;15.77;100.00;99060.31;7391279;19;20018;-77
2023/07/03 08:40:19;;;;;;;1.55;0.10;;;;;;;15.81;100.00;99067.16;7389262;19;20011;-77
2023/07/03 08:42:51;;;;;;;0.25;0.17;;;;;;;15.95;100.00;99059.56;7391928;19;20039;-77
2023/07/03 08:45:17;;;;;;;0.35;0.20;;;;;;;16.10;100.00;99059.88;7391166;19;20019;-77
2023/07/03 08:47:46;;;;;;;0.38;0.10;;;;;;;16.27;100.00;99060.38;7388083;19;20466;-77
2023/07/03 08:50:20;;;;;;;3.35;0.73;;;;;;;16.14;100.00;99051.91;7390768;19;20022;-77
2023/07/03 08:52:56;;;;;;;0.20;0.20;;;;;;;15.78;100.00;99056.25;7391919;19;20019;-77
2023/07/03 08:55:36;;;;;;;2.65;0.47;;;;;;;15.82;100.00;99046.22;7391902;19;20018;-77
2023/07/03 08:58:02;;;;;;;1.13;0.38;;;;;;;15.89;100.00;99036.44;7393556;19;20015;-77
2023/07/03 09:00:33;;;;;;;8.30;0.40;;;;;;;16.14;100.00;99042.69;7389549;19;20354;-77
2023/07/03 09:03:13;;;;;;;0.85;0.45;;;;;;;16.34;100.00;99040.09;7391215;19;20025;-77
2023/07/03 09:06:07;;;;;;;0.17;0.10;;;;;;;16.49;100.00;99040.38;7392149;19;20078;-78
2023/07/03 09:08:47;;;;;;;1.75;0.65;;;;;;;16.70;100.00;99034.19;7388037;19;20029;-77
2023/07/03 09:11:17;;;;;;;5.38;0.57;;;;;;;16.17;100.00;99038.84;7390028;19;20469;-77
2023/07/03 09:13:48;;;;;;;0.40;0.40;;;;;;;16.26;100.00;99036.41;7390883;19;20014;-77
2023/07/03 09:16:23;;;;;;;0.28;0.15;;;;;;;16.23;100.00;99019.84;7393620;19;20015;-77
2023/07/03 09:19:00;;;;;;;0.20;0.10;;;;;;;15.94;100.00;99032.78;7387904;19;20014;-78
2023/07/03 09:21:30;;;;;;;18.13;0.88;;;;;;;15.62;100.00;99024.28;7386926;19;20018;-77
2023/07/03 09:24:17;;;;;;;0.30;0.13;;;;;;;15.86;100.00;99023.44;7389299;19;20021;-77
2023/07/03 09:26:56;;;;;;;2.58;0.38;;;;;;;15.37;100.00;99011.56;7395060;19;20358;-77
2023/07/03 09:29:24;;;;;;;0.85;0.10;;;;;;;15.74;100.00;99000.38;7390853;19;20022;-77
2023/07/03 09:31:52;;;;;;;7.43;0.75;;;;;;;16.50;100.00;99002.53;7397172;19;20018;-78
2023/07/03 09:34:19;;;;;;;1.48;0.90;;;;;;;20.37;100.00;99005.59;7396449;19;20031;-77
2023/07/03 09:36:58;;;;;;;1.05;0.43;;;;;;;19.09;100.00;98993.75;7402127;19;20365;-78
2023/07/03 09:39:26;;;;;;;0.20;0.20;;;;;;;19.28;100.00;98992.19;7395185;19;20018;-77
2023/07/03 09:42:05;;;;;;;4.45;0.40;;;;;;;19.61;100.00;98985.59;7392472;19;20049;-77
2023/07/03 09:44:31;;;;;;;0.98;0.50;;;;;;;19.46;100.00;98984.78;7394228;19;20022;-77
2023/07/03 09:46:57;;;;;;;2.58;0.50;;;;;;;19.32;100.00;98986.16;7393280;19;20080;-77
2023/07/03 09:49:28;;;;;;;1.25;0.30;;;;;;;19.22;100.00;98983.13;7394487;19;20022;-77
2023/07/03 09:51:57;;;;;;;4.38;0.45;;;;;;;18.78;100.00;98981.50;7397045;19;20095;-77
2023/07/03 09:54:27;;;;;;;1.25;0.70;;;;;;;18.25;100.00;98983.09;7396257;19;20014;-77
2023/07/03 09:56:55;;;;;;;0.30;0.28;;;;;;;15.88;100.00;98987.16;7395763;19;20287;-77
2023/07/03 09:59:24;;;;;;;0.20;0.10;;;;;;;18.53;100.00;98980.38;7394770;19;20025;-77
2023/07/03 10:01:57;;;;;;;2.65;0.38;;;;;;;18.87;100.00;98976.13;7394304;19;20019;-77
2023/07/03 10:04:24;;;;;;;0.60;0.47;;;;;;;17.39;100.00;98972.72;7394612;19;20472;-77
2023/07/03 10:06:59;;;;;;;1.65;1.08;;;;;;;18.45;100.00;98969.03;7397230;19;20036;-77
2023/07/03 10:09:30;;;;;;;0.22;0.22;;;;;;;18.95;100.00;98970.53;7391831;19;20019;-77
2023/07/03 10:12:15;;;;;;;2.83;0.85;;;;;;;18.86;100.00;98965.41;7396248;19;20469;-77
2023/07/03 10:14:46;;;;;;;4.50;0.57;;;;;;;18.85;100.00;98961.06;7393970;19;20015;-77
2023/07/03 10:17:13;;;;;;;3.03;0.93;;;;;;;18.91;100.00;98948.31;7396472;19;20010;-78
2023/07/03 10:19:49;;;;;;;3.38;0.60;;;;;;;19.42;100.00;98944.84;7391993;19;20018;-77
2023/07/03 10:22:18;;;;;;;3.65;0.80;;;;;;;19.66;100.00;98944.38;7394171;19;20081;-77
2023/07/03 10:24:46;;;;;;;2.75;0.65;;;;;;;19.84;100.00;98942.53;7393298;19;20415;-77
2023/07/03 10:27:14;;;;;;;4.88;0.63;;;;;;;19.87;100.00;98921.63;7393665;19;20019;-78
2023/07/03 10:29:49;;;;;;;0.57;0.57;;;;;;;19.95;100.00;98930.84;7394429;19;20028;-77
2023/07/03 10:32:17;;;;;;;2.25;0.80;;;;;;;19.58;100.00;98935.09;7395067;19;20015;-77
2023/07/03 10:35:03;;;;;;;10.38;1.38;;;;;;;20.06;100.00;98925.59;7394853;19;20694;-77
2023/07/03 10:37:37;;;;;;;0.80;0.43;;;;;;;19.72;100.00;98927.22;7395516;19;20018;-77
2023/07/03 10:40:15;;;;;;;1.13;0.50;;;;;;;19.52;100.00;98918.34;7393353;19;20022;-78
2023/07/03 10:42:48;;;;;;;2.63;0.93;;;;;;;19.62;100.00;98918.56;7395568;19;20014;-77
2023/07/03 10:45:15;;;;;;;7.90;0.57;;;;;;;20.01;100.00;98914.50;7395711;19;20014;-77
2023/07/03 10:48:02;;;;;;;12.38;1.23;;;;;;;20.32;100.00;98908.31;7393546;19;20053;-78
2023/07/03 10:50:34;;;;;;;3.85;0.73;;;;;;;20.15;100.00;98902.44;7395346;19;20074;-78
2023/07/03 10:53:13;;;;;;;3.72;0.60;;;;;;;20.74;100.00;98888.84;7394793;19;20022;-77
2023/07/03 10:56:06;;;;;;;5.13;0.63;;;;;;;20.54;100.00;98892.66;7397084;19;20362;-77
2023/07/03 10:58:37;;;;;;;3.22;0.57;;;;;;;20.63;100.00;98894.91;7393515;19;20018;-78
2023/07/03 11:01:33;;;;;;;0.65;0.30;;;;;;;20.76;100.00;98880.53;7395391;19;20040;-78
2023/07/03 11:04:07;;;;;;;2.90;0.45;;;;;;;21.30;100.00;98875.47;7395172;19;20011;-78
2023/07/03 11:06:57;;;;;;;7.05;0.77;;;;;;;22.12;100.00;98871.41;7398380;19;20038;-77
2023/07/03 11:09:40;;;;;;;2.83;0.88;;;;;;;22.05;100.00;98858.03;7393404;19;20026;-78
2023/07/03 11:12:41;;;;;;;0.73;0.20;;;;;;;22.44;100.00;98854.28;7393476;19;20053;-78
2023/07/03 11:15:35;;;;;;;3.20;0.30;;;;;;;22.08;100.00;98844.78;7393829;19;20015;-78
2023/07/03 11:18:17;;;;;;;0.93;0.35;;;;;;;22.30;100.00;98853.09;7393341;19;20011;-78
2023/07/03 11:21:21;;;;;;;0.38;0.10;;;;;;;21.65;100.00;98846.00;7392898;19;20018;-78
2023/07/03 11:24:05;;;;;;;1.85;0.38;;;;;;;22.01;100.00;98834.22;7391978;19;20014;-77
2023/07/03 11:26:52;;;;;;;1.30;0.38;;;;;;;21.92;100.00;98826.41;7397611;19;20364;-77
2023/07/03 11:29:19;;;;;;;1.25;0.75;;;;;;;21.02;100.00;98823.47;7393279;19;20368;-77
2023/07/03 11:31:46;;;;;;;1.70;0.15;;;;;;;20.97;100.00;98821.59;7392093;19;20014;-77
2023/07/03 11:34:15;;;;;;;0.60;0.17;;;;;;;20.50;100.00;98835.72;7393590;19;20466;-77
2023/07/03 11:36:43;;;;;;;0.20;0.17;;;;;;;20.10;100.00;98835.53;7396319;19;20010;-77